createdAt,value
2017-09-04T00:01:32.594Z,85.29
2017-09-04T00:03:58.342Z,86.00
2017-09-04T00:06:24.116Z,85.72
2017-09-04T00:08:49.937Z,85.66
2017-09-04T00:11:15.699Z,85.32
2017-09-04T00:13:41.540Z,85.38
2017-09-04T00:16:07.312Z,85.69
2017-09-04T00:18:33.042Z,85.82
2017-09-04T00:20:58.894Z,86.42
2017-09-04T00:23:24.700Z,87.36
2017-09-04T00:25:50.452Z,87.36
2017-09-04T00:28:16.196Z,88.01
2017-09-04T00:30:41.978Z,87.70
2017-09-04T00:33:07.779Z,87.23
2017-09-04T00:35:33.535Z,87.16
2017-09-04T00:37:59.374Z,86.61
2017-09-04T00:40:25.168Z,86.15
2017-09-04T00:42:51.029Z,85.49
2017-09-04T00:45:16.842Z,86.09
2017-09-04T00:47:42.658Z,86.20
2017-09-04T00:50:08.410Z,86.97
2017-09-04T00:52:34.252Z,87.62
2017-09-04T00:55:01.177Z,87.07
2017-09-04T00:57:26.976Z,87.50
2017-09-04T00:59:52.763Z,87.56
2017-09-04T01:02:18.619Z,87.53
2017-09-04T01:04:44.408Z,86.78
2017-09-04T01:07:10.190Z,86.24
2017-09-04T01:09:35.943Z,86.89
2017-09-04T01:12:01.707Z,86.75
2017-09-04T01:14:27.527Z,86.08
2017-09-04T01:16:53.294Z,85.79
2017-09-04T01:19:19.100Z,86.44
2017-09-04T01:21:44.862Z,86.39
2017-09-04T01:24:10.631Z,86.66
2017-09-04T01:26:36.411Z,86.73
2017-09-04T01:29:02.156Z,86.55
2017-09-04T01:31:27.939Z,87.19
2017-09-04T01:33:53.730Z,87.33
2017-09-04T01:36:19.487Z,86.75
2017-09-04T01:38:45.299Z,86.67
2017-09-04T01:41:11.038Z,87.15
2017-09-04T01:43:36.820Z,86.32
2017-09-04T01:46:02.587Z,85.84
2017-09-04T01:48:28.323Z,86.24
2017-09-04T01:50:54.119Z,85.88
2017-09-04T01:53:19.870Z,85.78
2017-09-04T01:55:45.619Z,86.10
2017-09-04T01:58:11.483Z,86.10
2017-09-04T02:00:37.243Z,85.82
2017-09-04T02:03:03.011Z,86.29
2017-09-04T02:05:28.775Z,86.23
2017-09-04T02:07:54.579Z,86.42
2017-09-04T02:10:20.352Z,86.45
2017-09-04T02:12:46.135Z,86.80
2017-09-04T02:15:11.883Z,87.71
2017-09-04T02:17:37.648Z,87.23
2017-09-04T02:20:03.443Z,87.54
2017-09-04T02:22:29.192Z,88.26
2017-09-04T02:24:54.971Z,88.02
2017-09-04T02:27:20.725Z,87.50
2017-09-04T02:29:46.492Z,87.17
2017-09-04T02:32:12.267Z,87.28
2017-09-04T02:34:38.007Z,88.52
2017-09-04T02:37:03.766Z,88.60
2017-09-04T02:39:29.522Z,88.58
2017-09-04T02:41:55.296Z,88.96
2017-09-04T02:44:21.067Z,88.16
2017-09-04T02:46:46.807Z,87.21
2017-09-04T02:49:12.574Z,87.06
2017-09-04T02:51:38.367Z,87.80
2017-09-04T02:54:04.152Z,87.82
2017-09-04T02:56:29.892Z,87.39
2017-09-04T02:58:55.647Z,87.24
2017-09-04T03:01:21.811Z,87.26
2017-09-04T03:03:47.643Z,87.26
2017-09-04T03:06:13.391Z,86.87
2017-09-04T03:08:39.159Z,86.86
2017-09-04T03:11:04.972Z,86.87
2017-09-04T03:13:30.716Z,86.87
2017-09-04T03:15:56.489Z,86.48
2017-09-04T03:18:22.255Z,86.68
2017-09-04T03:20:48.063Z,86.66
2017-09-04T03:23:13.943Z,86.95
2017-09-04T03:25:39.791Z,87.48
2017-09-04T03:28:05.572Z,87.36
2017-09-04T03:30:31.372Z,87.99
2017-09-04T03:32:57.196Z,87.84
2017-09-04T03:35:22.992Z,88.07
2017-09-04T03:37:48.763Z,89.22
2017-09-04T03:40:14.638Z,88.64
2017-09-04T03:42:40.416Z,89.00
2017-09-04T03:45:06.247Z,89.38
2017-09-04T03:47:32.025Z,88.95
2017-09-04T03:49:57.849Z,88.01
2017-09-04T03:52:23.635Z,87.71
2017-09-04T03:54:49.403Z,87.76
2017-09-04T03:57:15.332Z,87.09
2017-09-04T03:59:41.163Z,88.34
2017-09-04T04:02:06.928Z,88.12
2017-09-04T04:04:32.782Z,87.83
2017-09-04T04:06:58.566Z,87.70
2017-09-04T04:09:24.348Z,87.64
2017-09-04T04:11:50.123Z,87.80
2017-09-04T04:14:15.911Z,87.10
2017-09-04T04:16:41.664Z,86.74
2017-09-04T04:19:07.483Z,87.57
2017-09-04T04:21:33.271Z,87.60
2017-09-04T04:23:59.016Z,87.71
2017-09-04T04:26:24.779Z,87.92
2017-09-04T04:28:50.544Z,88.09
2017-09-04T04:31:16.355Z,88.43
2017-09-04T04:33:42.172Z,89.64
2017-09-04T04:36:07.927Z,89.83
2017-09-04T04:38:33.685Z,89.20
2017-09-04T04:40:59.426Z,88.56
2017-09-04T04:43:25.195Z,87.90
2017-09-04T04:45:50.935Z,87.71
2017-09-04T04:48:16.719Z,88.18
2017-09-04T04:50:42.465Z,88.42
2017-09-04T04:53:08.242Z,88.12
2017-09-04T04:55:34.035Z,87.64
2017-09-04T04:57:59.840Z,87.85
2017-09-04T05:00:25.587Z,87.92
2017-09-04T05:02:51.403Z,87.83
2017-09-04T05:05:17.200Z,87.68
2017-09-04T05:07:42.951Z,87.98
2017-09-04T05:10:08.726Z,87.58
2017-09-04T05:12:34.510Z,88.35
2017-09-04T05:15:00.283Z,88.90
2017-09-04T05:17:27.077Z,88.37
2017-09-04T05:19:52.847Z,88.34
2017-09-04T05:22:18.602Z,89.03
2017-09-04T05:24:44.490Z,88.63
2017-09-04T05:27:10.251Z,88.47
2017-09-04T05:29:35.992Z,88.09
2017-09-04T05:32:01.851Z,87.88
2017-09-04T05:34:27.612Z,87.73
2017-09-04T05:36:53.423Z,88.08
2017-09-04T05:39:19.187Z,88.24
2017-09-04T05:41:44.992Z,88.36
2017-09-04T05:44:10.745Z,88.05
2017-09-04T05:46:36.490Z,87.87
2017-09-04T05:49:02.293Z,87.76
2017-09-04T05:51:28.638Z,88.00
2017-09-04T05:53:54.429Z,86.73
2017-09-04T05:56:20.177Z,87.07
2017-09-04T05:58:45.964Z,85.33
2017-09-04T06:01:11.719Z,82.44
2017-09-04T06:03:37.496Z,82.64
2017-09-04T06:06:03.260Z,81.48
2017-09-04T06:08:29.060Z,82.67
2017-09-04T06:10:54.798Z,81.98
2017-09-04T06:13:20.560Z,81.46
2017-09-04T06:15:46.351Z,81.46
2017-09-04T06:18:12.160Z,81.20
2017-09-04T06:20:38.006Z,81.36
2017-09-04T06:23:03.847Z,82.21
2017-09-04T06:25:29.708Z,80.13
2017-09-04T06:27:55.452Z,79.06
2017-09-04T06:30:21.203Z,79.74
2017-09-04T06:32:46.986Z,78.35
2017-09-04T06:35:12.787Z,79.95
2017-09-04T06:37:38.527Z,79.08
2017-09-04T06:40:04.295Z,76.19
2017-09-04T06:42:30.083Z,74.97
2017-09-04T06:44:55.844Z,74.16
2017-09-04T06:47:21.611Z,72.62
2017-09-04T06:49:47.408Z,71.29
2017-09-04T06:52:13.163Z,71.40
2017-09-04T06:54:39.020Z,69.64
2017-09-04T06:57:04.755Z,66.24
2017-09-04T06:59:30.491Z,64.68
2017-09-04T07:01:56.373Z,65.54
2017-09-04T07:04:22.127Z,64.23
2017-09-04T07:06:47.878Z,63.87
2017-09-04T07:09:13.747Z,62.86
2017-09-04T07:11:39.503Z,63.13
2017-09-04T07:14:05.271Z,61.99
2017-09-04T07:16:31.043Z,59.53
2017-09-04T07:18:56.799Z,57.77
2017-09-04T07:21:22.593Z,55.19
2017-09-04T07:23:48.435Z,55.67
2017-09-04T07:26:14.191Z,55.78
2017-09-04T07:28:39.970Z,53.80
2017-09-04T07:31:05.772Z,55.39
2017-09-04T07:33:31.516Z,54.31
2017-09-04T07:35:57.254Z,53.26
2017-09-04T07:38:23.090Z,54.03
2017-09-04T07:40:48.839Z,53.17
2017-09-04T07:43:14.580Z,52.74
2017-09-04T07:45:40.348Z,54.16
2017-09-04T07:48:06.181Z,49.80
2017-09-04T07:50:31.980Z,50.13
2017-09-04T07:52:57.807Z,50.45
2017-09-04T07:55:23.550Z,51.76
2017-09-04T07:57:49.303Z,50.16
2017-09-04T08:00:15.083Z,49.89
2017-09-04T08:02:40.827Z,49.37
2017-09-04T08:05:06.618Z,50.02
2017-09-04T08:07:32.380Z,51.14
2017-09-04T08:09:58.167Z,54.18
2017-09-04T08:12:23.944Z,53.00
2017-09-04T08:14:49.716Z,53.13
2017-09-04T08:17:15.546Z,54.43
2017-09-04T08:19:41.299Z,52.78
2017-09-04T08:22:07.059Z,54.04
2017-09-04T08:24:32.860Z,53.91
2017-09-04T08:26:58.614Z,55.10
2017-09-04T08:29:24.372Z,55.36
2017-09-04T08:31:50.263Z,55.62
2017-09-04T08:34:16.035Z,56.48
2017-09-04T08:36:41.791Z,55.15
2017-09-04T08:39:07.571Z,55.96
2017-09-04T08:41:33.311Z,55.99
2017-09-04T08:43:59.090Z,55.14
2017-09-04T08:46:24.871Z,55.92
2017-09-04T08:48:50.623Z,56.29
2017-09-04T08:51:16.389Z,53.70
2017-09-04T08:53:42.219Z,53.05
2017-09-04T08:56:07.975Z,51.87
2017-09-04T08:58:33.798Z,51.62
2017-09-04T09:01:00.232Z,51.31
2017-09-04T09:03:25.998Z,47.92
2017-09-04T09:05:51.781Z,45.96
2017-09-04T09:08:17.587Z,48.34
2017-09-04T09:10:43.520Z,47.75
2017-09-04T09:13:09.279Z,46.96
2017-09-04T09:15:35.035Z,47.79
2017-09-04T09:18:00.940Z,48.62
2017-09-04T09:20:26.685Z,43.87
2017-09-04T09:22:52.447Z,44.23
2017-09-04T09:25:18.236Z,42.10
2017-09-04T09:27:44.046Z,40.20
2017-09-04T09:30:09.798Z,41.76
2017-09-04T09:32:35.567Z,41.47
2017-09-04T09:35:01.363Z,40.94
2017-09-04T09:37:27.181Z,39.76
2017-09-04T09:39:52.951Z,38.03
2017-09-04T09:42:18.727Z,39.36
2017-09-04T09:44:44.516Z,40.40
2017-09-04T09:47:10.323Z,42.14
2017-09-04T09:49:36.077Z,42.51
2017-09-04T09:52:01.880Z,40.77
2017-09-04T09:54:27.671Z,39.50
2017-09-04T09:56:53.437Z,37.84
2017-09-04T09:59:19.540Z,38.40
2017-09-04T10:01:45.319Z,39.75
2017-09-04T10:04:11.083Z,39.63
2017-09-04T10:06:37.007Z,41.01
2017-09-04T10:09:02.784Z,41.55
2017-09-04T10:11:28.555Z,41.29
2017-09-04T10:13:54.342Z,43.16
2017-09-04T10:16:20.105Z,39.58
2017-09-04T10:18:45.925Z,41.51
2017-09-04T10:21:11.732Z,40.16
2017-09-04T10:23:37.508Z,41.16
2017-09-04T10:26:03.339Z,43.60
2017-09-04T10:28:29.096Z,46.43
2017-09-04T10:30:55.051Z,46.93
2017-09-04T10:33:20.819Z,47.12
2017-09-04T10:35:46.588Z,45.76
2017-09-04T10:38:12.380Z,47.34
2017-09-04T10:40:38.146Z,46.69
2017-09-04T10:43:03.942Z,47.04
2017-09-04T10:45:29.749Z,46.34
2017-09-04T10:47:55.520Z,46.00
2017-09-04T10:50:21.297Z,43.58
2017-09-04T10:52:47.215Z,42.12
2017-09-04T10:55:13.000Z,43.89
2017-09-04T10:57:38.800Z,42.96
2017-09-04T11:00:04.583Z,41.27
2017-09-04T11:02:30.379Z,39.80
2017-09-04T11:04:56.195Z,40.18
2017-09-04T11:07:21.978Z,40.42
2017-09-04T11:09:47.755Z,41.58
2017-09-04T11:12:13.557Z,42.26
2017-09-04T11:14:39.328Z,41.99
2017-09-04T11:17:05.138Z,42.66
2017-09-04T11:19:30.899Z,42.64
2017-09-04T11:21:56.703Z,42.47
2017-09-04T11:24:22.531Z,44.06
2017-09-04T11:26:48.316Z,43.11
2017-09-04T11:29:14.095Z,40.95
2017-09-04T11:31:39.904Z,40.71
2017-09-04T11:34:05.687Z,42.08
2017-09-04T11:36:31.503Z,42.32
2017-09-04T11:38:57.267Z,42.28
2017-09-04T11:41:23.031Z,43.15
2017-09-04T11:43:48.825Z,45.23
2017-09-04T11:46:14.587Z,44.99
2017-09-04T11:48:40.387Z,45.89
2017-09-04T11:51:06.175Z,45.04
2017-09-04T11:53:31.962Z,45.54
2017-09-04T11:55:57.734Z,45.96
2017-09-04T11:58:23.531Z,44.28
2017-09-04T12:00:49.466Z,44.51
2017-09-04T12:03:15.294Z,43.85
2017-09-04T12:05:41.048Z,44.82
2017-09-04T12:08:06.886Z,42.67
2017-09-04T12:10:32.699Z,43.66
2017-09-04T12:12:58.459Z,44.85
2017-09-04T12:15:24.231Z,43.62
2017-09-04T12:17:50.091Z,44.76
2017-09-04T12:20:15.992Z,42.92
2017-09-04T12:22:41.823Z,43.76
2017-09-04T12:25:07.661Z,41.50
2017-09-04T12:27:33.447Z,43.58
2017-09-04T12:29:59.265Z,41.94
2017-09-04T12:32:25.240Z,42.53
2017-09-04T12:34:51.115Z,44.81
2017-09-04T12:37:16.880Z,42.91
2017-09-04T12:39:42.683Z,44.39
2017-09-04T12:42:08.440Z,43.32
2017-09-04T12:44:34.203Z,43.82
2017-09-04T12:46:59.999Z,42.08
2017-09-04T12:49:25.781Z,41.74
2017-09-04T12:51:51.579Z,44.17
2017-09-04T12:54:17.396Z,43.96
2017-09-04T12:56:43.184Z,43.25
2017-09-04T12:59:08.948Z,41.72
2017-09-04T13:01:34.717Z,39.24
2017-09-04T13:04:00.518Z,40.02
2017-09-04T13:06:26.288Z,39.11
2017-09-04T13:08:52.048Z,40.25
2017-09-04T13:11:20.615Z,41.73
2017-09-04T13:16:50.174Z,42.12
2017-09-04T13:19:21.952Z,42.13
2017-09-04T13:21:54.487Z,41.76
2017-09-04T13:24:26.393Z,41.08
2017-09-04T13:26:58.283Z,41.94
2017-09-04T13:29:30.349Z,41.89
2017-09-04T13:31:56.167Z,43.23
2017-09-04T13:34:28.004Z,43.33
2017-09-04T13:36:59.879Z,44.19
2017-09-04T13:39:31.876Z,42.41
2017-09-04T13:42:00.648Z,41.73
2017-09-04T13:44:30.279Z,41.90
2017-09-04T13:50:00.622Z,41.45
2017-09-04T13:52:32.697Z,41.98
2017-09-04T13:58:15.479Z,44.46
2017-09-04T14:00:42.176Z,43.70
2017-09-04T14:03:14.251Z,44.25
2017-09-04T14:05:43.923Z,43.26
2017-09-04T14:08:16.000Z,44.34
2017-09-04T14:10:47.792Z,42.80
2017-09-04T14:13:18.449Z,43.98
2017-09-04T14:18:41.951Z,44.03
2017-09-04T14:21:07.857Z,45.50
2017-09-04T14:23:33.887Z,46.22
2017-09-04T14:25:59.715Z,45.99
2017-09-04T14:28:25.514Z,44.57
2017-09-04T14:30:51.273Z,45.77
2017-09-04T14:33:17.079Z,48.01
2017-09-04T14:35:43.027Z,47.16
2017-09-04T14:38:08.875Z,50.04
2017-09-04T14:40:34.678Z,48.21
2017-09-04T14:43:01.367Z,47.59
2017-09-04T14:45:29.135Z,47.62
2017-09-04T14:47:55.800Z,46.28
2017-09-04T14:50:21.616Z,47.54
2017-09-04T14:52:47.433Z,49.09
2017-09-04T14:55:13.252Z,49.18
2017-09-04T14:57:39.103Z,47.68
2017-09-04T15:00:04.900Z,49.03
2017-09-04T15:02:30.700Z,48.28
2017-09-04T15:04:56.468Z,48.88
2017-09-04T15:07:22.321Z,49.31
2017-09-04T15:09:48.169Z,50.22
2017-09-04T15:12:13.928Z,50.85
2017-09-04T15:14:39.695Z,51.17
2017-09-04T15:17:05.496Z,53.11
2017-09-04T15:19:31.317Z,52.54
2017-09-04T15:21:57.403Z,53.04
2017-09-04T15:24:23.260Z,51.45
2017-09-04T15:26:49.025Z,52.67
2017-09-04T15:29:14.823Z,53.10
2017-09-04T15:31:40.635Z,49.85
2017-09-04T15:34:06.399Z,51.25
2017-09-04T15:36:32.227Z,54.03
2017-09-04T15:38:58.019Z,53.74
2017-09-04T15:41:24.679Z,52.77
2017-09-04T15:43:50.503Z,54.39
2017-09-04T15:46:16.271Z,54.39
2017-09-04T15:48:42.054Z,50.86
2017-09-04T15:51:07.864Z,54.23
2017-09-04T15:53:33.651Z,56.51
2017-09-04T15:55:59.439Z,52.78
2017-09-04T15:58:25.291Z,52.39
2017-09-04T16:00:51.063Z,52.42
2017-09-04T16:03:16.872Z,55.13
2017-09-04T16:05:43.571Z,53.83
2017-09-04T16:08:10.275Z,54.89
2017-09-04T16:10:36.068Z,52.50
2017-09-04T16:13:05.894Z,54.22
2017-09-04T16:15:37.931Z,54.74
2017-09-04T16:18:03.717Z,56.64
2017-09-04T16:20:30.475Z,55.27
2017-09-04T16:22:57.128Z,55.52
2017-09-04T16:28:19.675Z,54.70
2017-09-04T16:30:51.500Z,55.37
2017-09-04T16:33:18.325Z,56.93
2017-09-04T16:35:45.767Z,58.84
2017-09-04T16:38:12.459Z,58.24
2017-09-04T16:40:39.153Z,58.91
2017-09-04T16:46:09.412Z,61.44
2017-09-04T16:48:38.063Z,64.73
2017-09-04T16:54:04.463Z,67.77
2017-09-04T16:56:31.153Z,67.21
2017-09-04T16:58:56.935Z,67.85
2017-09-04T17:01:22.792Z,68.56
2017-09-04T17:03:48.567Z,69.25
2017-09-04T17:06:14.363Z,71.42
2017-09-04T17:08:40.163Z,71.87
2017-09-04T17:11:06.903Z,70.38
2017-09-04T17:13:32.710Z,69.85
2017-09-04T17:16:01.475Z,71.78
2017-09-04T17:18:30.187Z,72.18
2017-09-04T17:20:55.964Z,70.43
2017-09-04T17:23:21.731Z,70.82
2017-09-04T17:25:47.523Z,70.94
2017-09-04T17:28:13.407Z,70.75
2017-09-04T17:30:39.197Z,71.52
2017-09-04T17:33:05.017Z,71.41
2017-09-04T17:35:31.686Z,72.64
2017-09-04T17:37:57.511Z,74.30
2017-09-04T17:40:23.294Z,74.93
2017-09-04T17:42:49.107Z,75.29
2017-09-04T17:45:14.991Z,75.54
2017-09-04T17:47:40.815Z,75.26
2017-09-04T17:50:06.605Z,74.80
2017-09-04T17:52:32.460Z,76.00
2017-09-04T17:54:58.268Z,76.95
2017-09-04T17:57:24.041Z,76.21
2017-09-04T17:59:49.812Z,75.51
2017-09-04T18:02:15.700Z,73.05
2017-09-04T18:04:41.492Z,75.15
2017-09-04T18:07:07.273Z,76.06
2017-09-04T18:09:33.192Z,76.18
2017-09-04T18:11:58.965Z,76.91
2017-09-04T18:14:24.754Z,77.15
2017-09-04T18:16:50.643Z,74.52
2017-09-04T18:19:16.422Z,76.03
2017-09-04T18:21:42.189Z,77.33
2017-09-04T18:24:08.016Z,77.14
2017-09-04T18:26:33.766Z,77.40
2017-09-04T18:28:59.583Z,78.12
2017-09-04T18:31:25.359Z,79.02
2017-09-04T18:33:51.215Z,78.53
2017-09-04T18:36:17.000Z,77.04
2017-09-04T18:38:42.799Z,76.64
2017-09-04T18:41:08.731Z,78.29
2017-09-04T18:43:34.504Z,79.25
2017-09-04T18:46:00.275Z,79.29
2017-09-04T18:48:26.084Z,79.18
2017-09-04T18:50:51.875Z,78.97
2017-09-04T18:53:17.679Z,79.07
2017-09-04T18:55:43.500Z,79.90
2017-09-04T18:58:09.323Z,79.83
2017-09-04T19:00:35.136Z,80.28
2017-09-04T19:03:00.891Z,78.49
2017-09-04T19:05:26.710Z,79.19
2017-09-04T19:07:52.452Z,80.64
2017-09-04T19:10:18.239Z,80.21
2017-09-04T19:12:43.994Z,79.26
2017-09-04T19:15:09.819Z,79.43
2017-09-04T19:17:35.695Z,78.45
2017-09-04T19:20:01.480Z,76.88
2017-09-04T19:22:27.267Z,76.47
2017-09-04T19:24:53.059Z,76.92
2017-09-04T19:27:18.843Z,77.12
2017-09-04T19:29:44.637Z,78.09
2017-09-04T19:32:10.400Z,78.50
2017-09-04T19:34:36.195Z,78.78
2017-09-04T19:37:02.024Z,78.09
2017-09-04T19:39:27.802Z,78.40
2017-09-04T19:41:53.591Z,78.88
2017-09-04T19:44:19.336Z,79.05
2017-09-04T19:46:45.179Z,79.28
2017-09-04T19:49:11.034Z,79.37
2017-09-04T19:51:36.815Z,79.88
2017-09-04T19:54:02.722Z,80.04
2017-09-04T19:56:28.496Z,79.66
2017-09-04T19:58:54.294Z,79.50
2017-09-04T20:01:20.047Z,79.88
2017-09-04T20:03:45.856Z,80.28
2017-09-04T20:06:11.664Z,80.64
2017-09-04T20:08:37.450Z,79.90
2017-09-04T20:11:03.286Z,80.13
2017-09-04T20:13:29.060Z,78.92
2017-09-04T20:15:54.874Z,79.26
2017-09-04T20:18:20.638Z,80.57
2017-09-04T20:20:46.409Z,80.54
2017-09-04T20:23:12.217Z,80.29
2017-09-04T20:25:37.993Z,80.50
2017-09-04T20:28:03.807Z,80.17
2017-09-04T20:30:29.567Z,79.71
2017-09-04T20:32:55.389Z,80.25
2017-09-04T20:35:21.168Z,80.33
2017-09-04T20:37:46.936Z,79.80
2017-09-04T20:40:12.740Z,81.93
2017-09-04T20:42:38.490Z,80.70
2017-09-04T20:45:04.272Z,79.67
2017-09-04T20:47:30.061Z,80.39
2017-09-04T20:49:55.871Z,76.77
2017-09-04T20:52:21.631Z,77.82
2017-09-04T20:54:47.480Z,78.77
2017-09-04T20:57:13.273Z,79.37
2017-09-04T20:59:39.047Z,79.88
2017-09-04T21:02:04.858Z,79.86
2017-09-04T21:04:30.635Z,79.98
2017-09-04T21:06:56.388Z,80.41
2017-09-04T21:09:22.951Z,80.23
2017-09-04T21:11:48.726Z,80.31
2017-09-04T21:14:14.495Z,80.65
2017-09-04T21:16:40.292Z,81.71
2017-09-04T21:19:06.156Z,80.66
2017-09-04T21:21:31.934Z,80.20
2017-09-04T21:23:57.831Z,81.54
2017-09-04T21:26:23.598Z,82.41
2017-09-04T21:28:49.427Z,81.60
2017-09-04T21:31:15.192Z,81.92
2017-09-04T21:33:40.981Z,80.59
2017-09-04T21:36:06.788Z,80.31
2017-09-04T21:38:32.551Z,78.83
2017-09-04T21:40:58.355Z,81.83
2017-09-04T21:43:24.139Z,81.42
2017-09-04T21:45:49.901Z,81.00
2017-09-04T21:48:15.767Z,80.46
2017-09-04T21:50:41.528Z,76.90
2017-09-04T21:53:07.287Z,76.43
2017-09-04T21:55:33.140Z,76.74
2017-09-04T21:57:58.902Z,77.37
2017-09-04T22:00:24.688Z,77.24
2017-09-04T22:02:50.499Z,77.53
2017-09-04T22:05:16.273Z,77.87
2017-09-04T22:07:42.012Z,78.65
2017-09-04T22:10:07.791Z,79.04
2017-09-04T22:12:33.540Z,79.43
2017-09-04T22:14:59.346Z,79.96
2017-09-04T22:17:25.102Z,79.63
2017-09-04T22:19:51.726Z,79.44
2017-09-04T22:22:17.477Z,79.25
2017-09-04T22:24:43.270Z,79.24
2017-09-04T22:27:09.067Z,79.29
2017-09-04T22:29:34.844Z,79.47
2017-09-04T22:32:00.714Z,79.37
2017-09-04T22:34:26.564Z,80.23
2017-09-04T22:36:52.459Z,79.99
2017-09-04T22:39:18.253Z,79.12
2017-09-04T22:41:44.005Z,79.11
2017-09-04T22:44:09.807Z,79.13
2017-09-04T22:46:35.613Z,79.67
2017-09-04T22:49:01.375Z,79.35
2017-09-04T22:51:27.856Z,79.74
2017-09-04T22:53:53.681Z,79.39
2017-09-04T22:56:19.447Z,79.73
2017-09-04T22:58:47.114Z,79.84
2017-09-04T23:01:12.915Z,80.16
2017-09-04T23:03:38.795Z,80.39
2017-09-04T23:06:04.563Z,80.62
2017-09-04T23:08:30.357Z,80.97
2017-09-04T23:10:56.145Z,81.30
2017-09-04T23:13:21.954Z,81.93
2017-09-04T23:15:47.730Z,82.81
2017-09-04T23:18:13.492Z,83.56
2017-09-04T23:20:39.390Z,84.65
2017-09-04T23:23:05.162Z,85.21
2017-09-04T23:25:30.981Z,87.20
2017-09-04T23:27:56.771Z,88.48
2017-09-04T23:30:22.584Z,89.64
2017-09-04T23:32:48.368Z,89.78
2017-09-04T23:35:14.140Z,91.16
2017-09-04T23:37:39.923Z,91.50
2017-09-04T23:40:05.691Z,91.80
2017-09-04T23:42:31.513Z,91.59
2017-09-04T23:44:57.259Z,91.92
2017-09-04T23:47:23.072Z,91.66
2017-09-04T23:49:48.827Z,92.17
2017-09-04T23:52:14.607Z,92.56
2017-09-04T23:54:40.390Z,92.50
2017-09-04T23:57:06.175Z,92.15
2017-09-04T23:59:31.940Z,92.14
